Time;durP1;ratioP1;P1;durP2;ratioP2;P2;SDS_P1;SDS_P2;PMS_P1;PMS_P2;Temp;Humidity;BMP_temperature;BMP_pressure;BME280_temperature;BME280_humidity;BME280_pressure;Samples;Min_cycle;Max_cycle;Signal;HPM_P1;HPM_P2
2023/01/28 00:01:05;;;;;;;2.65;1.73;;;;;;;;;;6298511;28;20028;-77
2023/01/28 00:04:05;;;;;;;4.45;4.15;;;;;;;;;;6280801;28;20016;-77
2023/01/28 00:07:05;;;;;;;0.93;0.93;;;;;;;;;;6297709;28;20029;-77
2023/01/28 00:10:06;;;;;;;1.40;1.40;;;;;;;;;;6298130;28;20025;-77
2023/01/28 00:13:06;;;;;;;2.73;2.63;;;;;;;;;;6298866;28;20115;-78
2023/01/28 00:16:10;;;;;;;1.30;1.30;;;;;;;;;;6295843;28;20099;-77
2023/01/28 00:19:10;;;;;;;2.83;2.40;;;;;;;;;;6281062;28;20102;-78
2023/01/28 00:22:10;;;;;;;2.23;2.17;;;;;;;;;;6297710;28;20021;-78
2023/01/28 00:25:10;;;;;;;1.92;1.88;;;;;;;;;;6297350;28;20016;-78
2023/01/28 00:28:10;;;;;;;1.70;1.60;;;;;;;;;;6298985;28;20032;-78
2023/01/28 00:31:16;;;;;;;2.20;2.10;;;;;;;;;;6287548;28;20128;-78
2023/01/28 00:34:16;;;;;;;3.30;3.10;;;;;;;;;;6280003;28;20029;-78
2023/01/28 00:37:16;;;;;;;4.80;2.83;;;;;;;;;;6292846;28;20029;-78
2023/01/28 00:40:16;;;;;;;2.15;2.05;;;;;;;;;;6296462;28;20103;-78
2023/01/28 00:43:16;;;;;;;3.60;3.40;;;;;;;;;;6294461;28;20020;-78
2023/01/28 00:46:17;;;;;;;3.20;3.00;;;;;;;;;;6277343;28;20105;-77
2023/01/28 00:49:18;;;;;;;2.87;2.47;;;;;;;;;;6297006;28;20557;-77
2023/01/28 00:52:18;;;;;;;3.73;3.43;;;;;;;;;;6285471;28;20372;-77
2023/01/28 00:55:18;;;;;;;3.55;3.35;;;;;;;;;;6279546;28;20017;-77
2023/01/28 00:58:19;;;;;;;3.43;3.23;;;;;;;;;;6279035;28;20424;-78
2023/01/28 01:01:20;;;;;;;0.80;0.80;;;;;;;;;;6295248;28;20021;-78
2023/01/28 01:04:25;;;;;;;1.55;1.55;;;;;;;;;;6295152;28;20008;-78
2023/01/28 01:07:42;;;;;;;6.97;6.47;;;;;;;;;;6296011;28;20012;-78
2023/01/28 01:10:42;;;;;;;3.53;3.33;;;;;;;;;;6296546;28;20112;-78
2023/01/28 01:13:42;;;;;;;4.65;1.55;;;;;;;;;;6293141;28;20039;-78
2023/01/28 01:16:42;;;;;;;3.43;2.23;;;;;;;;;;6293443;28;20388;-78
2023/01/28 01:19:42;;;;;;;1.83;1.73;;;;;;;;;;6296178;28;20021;-78
2023/01/28 01:22:43;;;;;;;6.53;2.97;;;;;;;;;;6295876;28;20070;-78
2023/01/28 01:25:43;;;;;;;1.90;1.80;;;;;;;;;;6292858;28;20032;-77
2023/01/28 01:28:43;;;;;;;13.77;3.95;;;;;;;;;;6293721;28;20033;-78
2023/01/28 01:31:44;;;;;;;2.13;2.03;;;;;;;;;;6289117;28;20056;-78
2023/01/28 01:34:44;;;;;;;1.23;1.23;;;;;;;;;;6296205;28;20494;-78
2023/01/28 01:37:44;;;;;;;7.93;4.80;;;;;;;;;;6294094;28;20020;-78
2023/01/28 01:40:44;;;;;;;1.30;1.30;;;;;;;;;;6288622;28;20023;-78
2023/01/28 01:43:46;;;;;;;0.30;0.30;;;;;;;;;;6294125;28;20009;-78
2023/01/28 01:46:49;;;;;;;2.20;2.05;;;;;;;;;;6290465;28;20070;-78
2023/01/28 01:49:49;;;;;;;3.75;3.45;;;;;;;;;;6274449;28;20020;-78
2023/01/28 01:52:51;;;;;;;3.80;3.60;;;;;;;;;;6295621;28;20020;-78
2023/01/28 01:55:53;;;;;;;1.60;1.50;;;;;;;;;;6293970;28;20464;-78
2023/01/28 01:58:53;;;;;;;;;;;;;;;;;;6296703;28;20063;-78
2023/01/28 02:01:53;;;;;;;3.38;3.10;;;;;;;;;;6293079;28;19964;-77
2023/01/28 02:04:54;;;;;;;2.30;2.20;;;;;;;;;;6291198;28;20127;-77
2023/01/28 02:08:19;;;;;;;2.53;2.43;;;;;;;;;;6294830;28;20032;-78
2023/01/28 02:11:16;;;;;;;2.25;2.15;;;;;;;;;;6284849;28;20476;-78
2023/01/28 02:14:16;;;;;;;2.90;2.00;;;;;;;;;;6293978;28;20063;-78
2023/01/28 02:17:17;;;;;;;2.07;1.53;;;;;;;;;;6291901;28;20384;-78
2023/01/28 02:20:20;;;;;;;0.80;0.80;;;;;;;;;;6294349;28;20104;-77
2023/01/28 02:23:40;;;;;;;3.10;2.92;;;;;;;;;;6290634;28;20048;-77
2023/01/28 02:26:59;;;;;;;2.63;2.53;;;;;;;;;;6262470;28;20377;-78
2023/01/28 02:30:34;;;;;;;7.43;6.72;;;;;;;;;;6287651;28;20026;-77
2023/01/28 02:33:39;;;;;;;1.65;1.35;;;;;;;;;;6182186;28;20058;-78
2023/01/28 02:36:47;;;;;;;1.63;1.52;;;;;;;;;;6266137;28;20024;-78
2023/01/28 02:39:50;;;;;;;2.53;2.42;;;;;;;;;;6294725;28;20468;-78
2023/01/28 02:42:50;;;;;;;5.32;4.20;;;;;;;;;;6291235;28;20441;-79
2023/01/28 02:49:11;;;;;;;2.90;2.72;;;;;;;;;;6285134;28;20384;-78
2023/01/28 02:52:11;;;;;;;2.17;2.03;;;;;;;;;;6288761;28;20050;-79
2023/01/28 02:55:30;;;;;;;2.25;2.15;;;;;;;;;;6295030;28;20033;-78
2023/01/28 02:58:33;;;;;;;3.92;2.50;;;;;;;;;;6276819;28;20020;-79
2023/01/28 03:01:37;;;;;;;0.40;0.40;;;;;;;;;;6294601;28;20021;-78
2023/01/28 03:04:49;;;;;;;3.42;2.80;;;;;;;;;;6292222;28;20055;-78
2023/01/28 03:07:49;;;;;;;;;;;;;;;;;;6272509;28;20085;-78
2023/01/28 03:37:48;;;;;;;0.88;0.88;;;;;;;;;;6284089;28;20036;-79
2023/01/28 03:40:54;;;;;;;2.00;1.90;;;;;;;;;;6275252;28;20618;-79
2023/01/28 03:43:54;;;;;;;1.30;1.30;;;;;;;;;;6298164;28;20131;-79
2023/01/28 03:46:55;;;;;;;1.57;1.57;;;;;;;;;;6277622;28;20048;-79
2023/01/28 03:49:56;;;;;;;2.58;2.38;;;;;;;;;;6297778;28;20091;-79
2023/01/28 03:53:11;;;;;;;8.67;4.20;;;;;;;;;;6292247;28;20024;-79
2023/01/28 03:56:18;;;;;;;1.80;1.75;;;;;;;;;;6290684;28;20050;-79
2023/01/28 03:59:18;;;;;;;4.75;2.78;;;;;;;;;;6281133;28;20016;-79
2023/01/28 04:02:20;;;;;;;19.50;6.05;;;;;;;;;;6280279;28;20389;-79
2023/01/28 04:05:21;;;;;;;2.25;2.05;;;;;;;;;;6298346;28;20492;-79
2023/01/28 04:08:21;;;;;;;4.80;1.88;;;;;;;;;;6298078;28;20016;-79
2023/01/28 04:11:24;;;;;;;1.07;1.07;;;;;;;;;;6297964;28;20032;-79
2023/01/28 04:14:26;;;;;;;5.18;2.63;;;;;;;;;;6298679;28;20073;-79
2023/01/28 04:17:26;;;;;;;0.70;0.70;;;;;;;;;;6297682;28;20020;-78
2023/01/28 04:20:26;;;;;;;1.70;1.70;;;;;;;;;;6297996;28;20040;-79
2023/01/28 04:23:28;;;;;;;2.40;2.27;;;;;;;;;;6283094;28;20039;-79
2023/01/28 04:26:28;;;;;;;;;;;;;;;;;;6299276;28;20020;-79
2023/01/28 04:29:28;;;;;;;0.88;0.88;;;;;;;;;;6296199;28;19905;-79
2023/01/28 04:32:29;;;;;;;4.60;2.00;;;;;;;;;;6297824;28;20074;-78
2023/01/28 04:35:29;;;;;;;1.50;1.20;;;;;;;;;;6296649;28;20380;-79
2023/01/28 04:38:29;;;;;;;0.88;0.85;;;;;;;;;;6281955;28;20024;-79
2023/01/28 04:41:29;;;;;;;3.10;3.00;;;;;;;;;;6296345;28;20109;-79
2023/01/28 04:44:29;;;;;;;0.67;0.67;;;;;;;;;;6279979;28;20020;-79
2023/01/28 04:47:29;;;;;;;2.80;2.67;;;;;;;;;;6279236;28;20016;-79
2023/01/28 04:50:30;;;;;;;12.27;4.03;;;;;;;;;;6297301;28;20021;-79
2023/01/28 04:53:30;;;;;;;1.27;1.25;;;;;;;;;;6280509;28;20746;-79
2023/01/28 04:56:30;;;;;;;4.00;3.80;;;;;;;;;;6279557;28;20078;-79
2023/01/28 04:59:30;;;;;;;4.50;3.80;;;;;;;;;;6278535;28;20624;-79
2023/01/28 05:02:30;;;;;;;5.50;5.20;;;;;;;;;;6297154;28;20392;-79
2023/01/28 05:05:31;;;;;;;1.80;1.70;;;;;;;;;;6296438;28;20115;-79
2023/01/28 05:08:31;;;;;;;1.43;1.43;;;;;;;;;;6295885;28;20024;-79
2023/01/28 05:11:31;;;;;;;3.07;2.00;;;;;;;;;;6279069;28;20074;-79
2023/01/28 05:14:31;;;;;;;1.67;1.57;;;;;;;;;;6297059;28;20066;-79
2023/01/28 05:17:32;;;;;;;2.17;2.10;;;;;;;;;;6277692;28;20067;-79
2023/01/28 05:20:32;;;;;;;3.27;3.07;;;;;;;;;;6292149;28;20418;-79
2023/01/28 05:23:33;;;;;;;1.40;1.40;;;;;;;;;;6297712;28;20021;-79
2023/01/28 05:26:34;;;;;;;4.13;3.85;;;;;;;;;;6294860;28;20025;-79
2023/01/28 05:29:34;;;;;;;2.90;2.77;;;;;;;;;;6295514;28;20033;-79
2023/01/28 05:32:34;;;;;;;2.97;2.83;;;;;;;;;;6294755;28;20032;-79
2023/01/28 05:35:35;;;;;;;0.47;0.47;;;;;;;;;;6320414;28;20031;-79
2023/01/28 05:38:35;;;;;;;1.80;1.70;;;;;;;;;;6319923;28;20371;-80
2023/01/28 05:41:35;;;;;;;0.60;0.60;;;;;;;;;;6317380;28;20532;-79
2023/01/28 05:44:36;;;;;;;2.72;2.58;;;;;;;;;;6319149;28;20024;-79
2023/01/28 05:47:37;;;;;;;2.15;2.05;;;;;;;;;;6322763;28;20047;-79
2023/01/28 05:50:38;;;;;;;2.10;2.00;;;;;;;;;;6320738;28;20028;-79
2023/01/28 05:53:38;;;;;;;0.60;0.60;;;;;;;;;;6322448;28;20126;-79
2023/01/28 05:56:39;;;;;;;1.60;1.60;;;;;;;;;;6319031;28;20073;-79
2023/01/28 05:59:39;;;;;;;8.53;5.53;;;;;;;;;;6317823;28;20058;-80
2023/01/28 06:02:39;;;;;;;3.10;3.00;;;;;;;;;;6313267;28;20418;-79
2023/01/28 06:05:39;;;;;;;2.78;2.58;;;;;;;;;;6314069;28;20028;-80
2023/01/28 06:08:40;;;;;;;3.13;2.93;;;;;;;;;;6313988;28;20039;-79
2023/01/28 06:11:40;;;;;;;1.37;1.37;;;;;;;;;;6313648;28;20073;-79
2023/01/28 06:14:40;;;;;;;3.70;3.40;;;;;;;;;;6318734;28;20012;-79
2023/01/28 06:17:41;;;;;;;0.40;0.40;;;;;;;;;;6314996;28;20031;-79
2023/01/28 06:20:41;;;;;;;1.13;1.13;;;;;;;;;;6320401;28;20031;-79
2023/01/28 06:23:41;;;;;;;2.57;2.43;;;;;;;;;;6315206;28;20020;-79
2023/01/28 06:26:41;;;;;;;5.40;4.07;;;;;;;;;;6318717;28;20026;-79
2023/01/28 06:29:41;;;;;;;2.50;2.40;;;;;;;;;;6314232;28;20039;-79
2023/01/28 06:32:43;;;;;;;0.43;0.43;;;;;;;;;;6302397;28;20147;-80
2023/01/28 06:35:43;;;;;;;5.53;1.75;;;;;;;;;;6306063;28;20084;-79
2023/01/28 06:38:43;;;;;;;4.50;1.33;;;;;;;;;;6310772;28;20023;-79
2023/01/28 06:41:44;;;;;;;2.88;2.78;;;;;;;;;;6313544;28;20020;-79
2023/01/28 06:44:44;;;;;;;2.07;1.97;;;;;;;;;;6319835;28;20246;-80
2023/01/28 06:47:44;;;;;;;3.20;3.00;;;;;;;;;;6318757;28;20024;-79
2023/01/28 06:50:47;;;;;;;1.60;1.60;;;;;;;;;;6326609;28;20020;-79
2023/01/28 06:53:47;;;;;;;2.53;2.33;;;;;;;;;;6322340;28;20053;-80
2023/01/28 06:56:48;;;;;;;3.47;3.33;;;;;;;;;;6326386;28;20016;-80
2023/01/28 06:59:48;;;;;;;2.87;2.63;;;;;;;;;;6323937;28;20052;-80
2023/01/28 07:02:48;;;;;;;3.78;3.58;;;;;;;;;;6323832;28;20012;-79
2023/01/28 07:05:48;;;;;;;2.17;2.07;;;;;;;;;;6315841;28;20051;-80
2023/01/28 07:08:48;;;;;;;3.73;1.80;;;;;;;;;;6322273;28;20099;-80
2023/01/28 07:11:49;;;;;;;0.85;0.85;;;;;;;;;;6323245;28;20031;-79
2023/01/28 07:14:49;;;;;;;1.15;1.15;;;;;;;;;;6325527;28;20056;-79
2023/01/28 07:17:49;;;;;;;0.53;0.53;;;;;;;;;;6320806;28;20024;-79
2023/01/28 07:20:49;;;;;;;3.30;3.10;;;;;;;;;;6318356;28;20395;-79
2023/01/28 07:23:49;;;;;;;1.10;1.07;;;;;;;;;;6308801;28;20024;-79
2023/01/28 07:26:50;;;;;;;3.30;3.10;;;;;;;;;;6321424;28;20480;-79
2023/01/28 07:29:50;;;;;;;6.03;4.25;;;;;;;;;;6318068;28;20043;-80
2023/01/28 07:32:54;;;;;;;1.08;1.08;;;;;;;;;;6320056;28;20287;-80
2023/01/28 07:35:54;;;;;;;1.73;1.70;;;;;;;;;;6315866;28;20020;-79
2023/01/28 07:38:55;;;;;;;6.50;4.80;;;;;;;;;;6321710;28;20062;-80
2023/01/28 07:41:55;;;;;;;2.80;2.67;;;;;;;;;;6316537;28;20031;-79
2023/01/28 07:44:55;;;;;;;7.93;4.07;;;;;;;;;;6316733;28;20019;-79
2023/01/28 07:47:56;;;;;;;1.57;1.57;;;;;;;;;;6317117;28;20036;-79
2023/01/28 07:50:57;;;;;;;1.10;1.10;;;;;;;;;;6308924;28;20535;-80
2023/01/28 07:53:58;;;;;;;3.42;3.22;;;;;;;;;;6304027;28;20093;-79
2023/01/28 07:56:58;;;;;;;1.23;1.23;;;;;;;;;;6312647;28;20051;-79
2023/01/28 07:59:58;;;;;;;8.65;4.88;;;;;;;;;;6308423;28;20069;-79
2023/01/28 08:02:59;;;;;;;4.03;2.57;;;;;;;;;;6303586;28;20016;-79
2023/01/28 08:06:00;;;;;;;0.95;0.95;;;;;;;;;;6315168;28;20023;-79
2023/01/28 08:09:00;;;;;;;0.97;0.97;;;;;;;;;;6309135;28;20024;-80
2023/01/28 08:12:01;;;;;;;2.63;2.53;;;;;;;;;;6305530;28;20019;-79
2023/01/28 08:15:04;;;;;;;0.80;0.80;;;;;;;;;;6307010;28;20472;-79
2023/01/28 08:18:05;;;;;;;3.22;2.35;;;;;;;;;;6326633;28;20028;-79
2023/01/28 08:21:05;;;;;;;0.75;0.75;;;;;;;;;;6313111;28;20375;-79
2023/01/28 08:24:05;;;;;;;3.63;2.47;;;;;;;;;;6309255;28;20093;-79
2023/01/28 08:27:06;;;;;;;3.40;3.10;;;;;;;;;;6306447;28;20043;-79
2023/01/28 08:30:08;;;;;;;2.08;1.98;;;;;;;;;;6312774;28;20043;-79
2023/01/28 08:33:09;;;;;;;1.27;1.27;;;;;;;;;;6299647;28;20048;-78
2023/01/28 08:36:09;;;;;;;4.85;3.15;;;;;;;;;;6284411;28;20427;-79
2023/01/28 08:39:09;;;;;;;7.33;5.13;;;;;;;;;;6277691;28;20017;-79
2023/01/28 08:42:10;;;;;;;2.30;2.10;;;;;;;;;;6268088;28;20021;-79
2023/01/28 08:45:10;;;;;;;1.60;1.50;;;;;;;;;;6282847;28;20104;-78
2023/01/28 08:48:13;;;;;;;7.03;6.40;;;;;;;;;;6272653;28;20352;-78
2023/01/28 08:51:13;;;;;;;1.40;1.40;;;;;;;;;;6285117;28;20513;-79
2023/01/28 08:54:13;;;;;;;0.77;0.77;;;;;;;;;;6286319;28;20065;-78
2023/01/28 08:57:17;;;;;;;3.83;1.57;;;;;;;;;;6284052;28;20033;-79
2023/01/28 09:00:17;;;;;;;8.68;7.97;;;;;;;;;;6280151;28;20030;-79
2023/01/28 09:03:17;;;;;;;0.30;0.30;;;;;;;;;;6268534;28;20139;-79
2023/01/28 09:06:18;;;;;;;2.20;2.10;;;;;;;;;;6283364;28;20364;-79
2023/01/28 09:09:18;;;;;;;1.57;1.57;;;;;;;;;;6294505;28;20032;-78
2023/01/28 09:12:18;;;;;;;4.17;3.90;;;;;;;;;;6272395;28;20464;-78
2023/01/28 09:15:18;;;;;;;0.50;0.50;;;;;;;;;;6281659;28;20056;-78
2023/01/28 09:18:19;;;;;;;0.80;0.80;;;;;;;;;;6289154;28;20025;-79
2023/01/28 09:21:19;;;;;;;0.50;0.50;;;;;;;;;;6265509;28;20017;-79
2023/01/28 09:24:20;;;;;;;0.47;0.47;;;;;;;;;;6258334;28;20013;-78
2023/01/28 09:27:20;;;;;;;2.10;2.00;;;;;;;;;;6273577;28;20021;-78
2023/01/28 09:30:20;;;;;;;1.73;1.63;;;;;;;;;;6276960;28;20041;-79
2023/01/28 09:33:20;;;;;;;0.60;0.60;;;;;;;;;;6278352;28;20040;-79
2023/01/28 09:36:21;;;;;;;0.30;0.30;;;;;;;;;;6258189;28;20020;-79
2023/01/28 09:39:21;;;;;;;3.27;3.07;;;;;;;;;;6278819;28;20154;-79
2023/01/28 09:42:41;;;;;;;0.30;0.30;;;;;;;;;;6284355;28;20125;-79
2023/01/28 09:45:44;;;;;;;3.03;2.80;;;;;;;;;;6293658;28;20027;-79
2023/01/28 09:48:49;;;;;;;0.82;0.82;;;;;;;;;;6289513;28;20024;-80
2023/01/28 09:51:53;;;;;;;0.93;0.93;;;;;;;;;;6288249;28;20685;-80
2023/01/28 09:54:57;;;;;;;1.73;1.65;;;;;;;;;;6265776;28;20364;-79
2023/01/28 09:57:58;;;;;;;0.90;0.90;;;;;;;;;;6259895;28;20025;-80
2023/01/28 10:00:59;;;;;;;0.63;0.63;;;;;;;;;;6274239;28;20487;-80
2023/01/28 10:04:08;;;;;;;3.85;3.63;;;;;;;;;;6284555;28;20050;-80
2023/01/28 10:07:11;;;;;;;1.75;1.65;;;;;;;;;;6274453;28;20028;-80
2023/01/28 10:10:16;;;;;;;0.40;0.40;;;;;;;;;;6268374;28;20480;-80
2023/01/28 10:13:22;;;;;;;1.45;1.35;;;;;;;;;;6264315;28;20553;-80
2023/01/28 10:16:41;;;;;;;0.40;0.40;;;;;;;;;;6283964;28;20083;-81
2023/01/28 10:19:48;;;;;;;3.65;1.52;;;;;;;;;;6264927;28;20037;-80
2023/01/28 10:22:59;;;;;;;2.08;1.95;;;;;;;;;;6283049;28;20412;-80
2023/01/28 10:26:04;;;;;;;0.30;0.30;;;;;;;;;;6293289;28;20099;-80
2023/01/28 10:29:10;;;;;;;0.88;0.88;;;;;;;;;;6293810;28;20028;-80
2023/01/28 10:32:10;;;;;;;2.05;1.20;;;;;;;;;;6291819;28;20412;-80
2023/01/28 10:35:10;;;;;;;0.38;0.38;;;;;;;;;;6313762;28;20457;-80
2023/01/28 10:38:14;;;;;;;2.90;2.63;;;;;;;;;;6308763;28;20027;-80
2023/01/28 10:41:18;;;;;;;0.55;0.55;;;;;;;;;;6314130;28;20059;-80
2023/01/28 10:44:36;;;;;;;1.73;1.67;;;;;;;;;;6311502;28;20024;-80
2023/01/28 10:47:59;;;;;;;0.50;0.50;;;;;;;;;;6306403;28;20032;-80
2023/01/28 10:51:01;;;;;;;2.53;2.38;;;;;;;;;;6299366;28;20403;-80
2023/01/28 10:54:02;;;;;;;0.95;0.75;;;;;;;;;;6311243;28;20020;-80
2023/01/28 10:57:04;;;;;;;7.93;2.73;;;;;;;;;;6307429;28;20113;-79
2023/01/28 11:00:04;;;;;;;;;;;;;;;;;;6314964;28;20016;-79
2023/01/28 11:03:04;;;;;;;1.58;1.50;;;;;;;;;;6312627;28;19916;-78
2023/01/28 11:06:05;;;;;;;0.33;0.33;;;;;;;;;;6304981;28;20496;-78
2023/01/28 11:09:19;;;;;;;0.33;0.33;;;;;;;;;;6308407;28;20053;-79
2023/01/28 11:12:26;;;;;;;3.67;3.38;;;;;;;;;;6306431;28;20016;-79
2023/01/28 11:15:27;;;;;;;3.65;3.45;;;;;;;;;;6298355;28;20025;-79
2023/01/28 11:18:35;;;;;;;0.80;0.80;;;;;;;;;;6305094;28;20024;-79
2023/01/28 11:21:36;;;;;;;3.55;2.72;;;;;;;;;;6311833;28;20025;-79
2023/01/28 11:24:36;;;;;;;10.75;2.38;;;;;;;;;;6302864;28;20028;-78
2023/01/28 11:27:36;;;;;;;0.30;0.30;;;;;;;;;;6306493;28;20499;-79
2023/01/28 11:30:39;;;;;;;0.95;0.95;;;;;;;;;;6312595;28;20063;-79
2023/01/28 11:33:48;;;;;;;2.15;2.08;;;;;;;;;;6310853;28;20048;-80
2023/01/28 11:37:12;;;;;;;1.70;1.60;;;;;;;;;;6307631;28;20028;-79
2023/01/28 11:40:19;;;;;;;4.88;4.57;;;;;;;;;;6314910;28;20043;-79
2023/01/28 11:43:20;;;;;;;1.45;1.38;;;;;;;;;;6302034;28;20024;-79
2023/01/28 11:46:28;;;;;;;3.28;1.70;;;;;;;;;;6305202;28;20365;-79
2023/01/28 11:49:40;;;;;;;0.63;0.63;;;;;;;;;;6310640;28;20024;-80
2023/01/28 11:52:59;;;;;;;0.85;0.85;;;;;;;;;;6304859;28;20024;-80
2023/01/28 11:56:19;;;;;;;1.10;1.00;;;;;;;;;;6305297;28;20112;-80
2023/01/28 11:59:30;;;;;;;2.50;2.38;;;;;;;;;;6306403;28;20031;-80
2023/01/28 12:02:35;;;;;;;3.45;3.20;;;;;;;;;;6308072;28;20036;-80
2023/01/28 12:05:41;;;;;;;3.22;2.95;;;;;;;;;;6322778;28;20028;-80
2023/01/28 12:08:53;;;;;;;2.63;2.47;;;;;;;;;;6320691;28;20035;-80
2023/01/28 12:12:11;;;;;;;3.72;2.40;;;;;;;;;;6318745;28;20046;-80
2023/01/28 12:15:12;;;;;;;2.72;2.63;;;;;;;;;;6313655;28;20157;-80
2023/01/28 12:18:31;;;;;;;1.63;1.52;;;;;;;;;;6316742;28;20020;-80
2023/01/28 12:21:47;;;;;;;4.95;4.47;;;;;;;;;;6320770;28;20028;-80
2023/01/28 12:24:48;;;;;;;1.85;1.83;;;;;;;;;;6315204;28;20381;-80
2023/01/28 12:28:01;;;;;;;0.20;0.20;;;;;;;;;;6323274;28;20479;-80
2023/01/28 12:31:05;;;;;;;2.30;2.20;;;;;;;;;;6319724;28;20492;-79
2023/01/28 12:34:05;;;;;;;2.92;2.80;;;;;;;;;;6300331;28;20492;-80
2023/01/28 12:37:17;;;;;;;2.17;2.07;;;;;;;;;;6275725;28;20012;-80
2023/01/28 12:40:25;;;;;;;0.50;0.50;;;;;;;;;;6293511;28;20017;-80
2023/01/28 12:43:43;;;;;;;3.92;2.45;;;;;;;;;;6280271;28;20115;-80
2023/01/28 12:47:00;;;;;;;2.45;2.30;;;;;;;;;;6298944;28;20027;-80
2023/01/28 12:50:09;;;;;;;3.80;3.30;;;;;;;;;;6292462;28;20098;-81
2023/01/28 12:53:21;;;;;;;6.65;1.75;;;;;;;;;;6289571;28;20116;-81
2023/01/28 12:56:24;;;;;;;0.30;0.30;;;;;;;;;;6292712;28;20013;-81
2023/01/28 12:59:28;;;;;;;3.33;3.13;;;;;;;;;;6267819;28;20158;-80
2023/01/28 13:02:31;;;;;;;5.95;4.20;;;;;;;;;;6297866;28;20092;-81
2023/01/28 13:05:33;;;;;;;3.53;3.33;;;;;;;;;;6275608;28;20009;-81
2023/01/28 13:08:34;;;;;;;3.30;2.92;;;;;;;;;;6278865;28;20337;-81
2023/01/28 13:11:35;;;;;;;9.23;1.73;;;;;;;;;;6296631;28;20019;-81
2023/01/28 13:14:35;;;;;;;4.27;3.83;;;;;;;;;;6294695;28;20087;-80
2023/01/28 13:17:35;;;;;;;2.60;2.27;;;;;;;;;;6270812;28;20017;-80
2023/01/28 13:20:46;;;;;;;2.13;2.03;;;;;;;;;;6267784;28;20012;-80
2023/01/28 13:23:48;;;;;;;4.05;2.85;;;;;;;;;;6280075;28;20020;-81
2023/01/28 13:26:53;;;;;;;7.13;4.25;;;;;;;;;;6281713;28;20468;-80
2023/01/28 13:30:00;;;;;;;9.68;2.63;;;;;;;;;;6281295;28;20481;-80
2023/01/28 13:33:02;;;;;;;3.30;3.10;;;;;;;;;;6276694;28;20055;-80
2023/01/28 13:36:02;;;;;;;;;;;;;;;;;;6278768;28;20048;-80
2023/01/28 13:39:12;;;;;;;6.20;2.65;;;;;;;;;;6263177;28;19915;-81
2023/01/28 13:42:39;;;;;;;11.90;6.32;;;;;;;;;;6274728;28;20053;-80
2023/01/28 13:45:40;;;;;;;1.30;1.30;;;;;;;;;;6273861;28;20044;-80
2023/01/28 13:48:48;;;;;;;1.17;1.17;;;;;;;;;;6288595;28;20055;-79
2023/01/28 13:52:14;;;;;;;6.03;5.45;;;;;;;;;;6294548;28;20058;-81
2023/01/28 13:55:23;;;;;;;1.95;1.85;;;;;;;;;;6268941;28;20483;-80
2023/01/28 13:58:30;;;;;;;1.77;1.67;;;;;;;;;;6265208;28;20060;-80
2023/01/28 14:01:42;;;;;;;4.43;4.10;;;;;;;;;;6276693;28;20459;-80
2023/01/28 14:04:45;;;;;;;6.32;5.78;;;;;;;;;;6281334;28;20016;-80
2023/01/28 14:07:46;;;;;;;1.48;1.45;;;;;;;;;;6274629;28;20024;-80
2023/01/28 14:10:58;;;;;;;4.25;3.85;;;;;;;;;;6295641;28;20074;-80
2023/01/28 14:14:04;;;;;;;2.58;2.47;;;;;;;;;;6291902;28;20039;-80
2023/01/28 14:17:07;;;;;;;1.58;1.58;;;;;;;;;;6288066;28;20020;-80
2023/01/28 14:20:19;;;;;;;2.63;2.42;;;;;;;;;;6271900;28;20013;-80
2023/01/28 14:23:20;;;;;;;5.25;3.25;;;;;;;;;;6268838;28;20103;-80
2023/01/28 14:26:27;;;;;;;6.10;3.38;;;;;;;;;;6270311;28;20032;-80
2023/01/28 14:29:36;;;;;;;3.88;3.60;;;;;;;;;;6276645;28;20093;-80
2023/01/28 14:32:43;;;;;;;2.58;2.47;;;;;;;;;;6295978;28;20053;-80
2023/01/28 14:35:44;;;;;;;1.85;1.85;;;;;;;;;;6289087;28;20036;-81
2023/01/28 14:38:45;;;;;;;2.28;2.20;;;;;;;;;;6289425;28;20446;-80
2023/01/28 14:41:46;;;;;;;2.77;2.60;;;;;;;;;;6263804;28;20099;-80
2023/01/28 14:44:50;;;;;;;3.90;3.58;;;;;;;;;;6281168;28;20014;-80
2023/01/28 14:47:56;;;;;;;4.72;4.35;;;;;;;;;;6264571;28;20024;-80
2023/01/28 14:50:57;;;;;;;3.00;2.83;;;;;;;;;;6270599;28;20021;-80
2023/01/28 14:54:15;;;;;;;0.68;0.68;;;;;;;;;;6269239;28;20028;-81
2023/01/28 14:57:31;;;;;;;4.28;3.38;;;;;;;;;;6294386;28;20435;-80
2023/01/28 15:00:34;;;;;;;12.73;4.93;;;;;;;;;;6276417;28;20058;-81
2023/01/28 15:03:34;;;;;;;1.13;1.13;;;;;;;;;;6276881;28;20061;-80
2023/01/28 15:06:34;;;;;;;0.97;0.97;;;;;;;;;;6282406;28;20033;-81
2023/01/28 15:09:34;;;;;;;1.47;1.47;;;;;;;;;;6294983;28;20017;-81
2023/01/28 15:12:37;;;;;;;3.20;2.88;;;;;;;;;;6291115;28;20017;-81
2023/01/28 15:15:45;;;;;;;8.52;5.32;;;;;;;;;;6287843;28;20091;-81
2023/01/28 15:18:45;;;;;;;12.43;2.38;;;;;;;;;;6298090;28;20027;-80
2023/01/28 15:21:46;;;;;;;12.90;6.00;;;;;;;;;;6294729;28;20401;-81
2023/01/28 15:24:46;;;;;;;5.43;4.77;;;;;;;;;;6281225;28;20377;-80
2023/01/28 15:27:48;;;;;;;3.33;3.03;;;;;;;;;;6294073;28;20063;-80
2023/01/28 15:30:48;;;;;;;5.97;3.50;;;;;;;;;;6274822;28;20024;-78
2023/01/28 15:33:58;;;;;;;5.65;5.25;;;;;;;;;;6297514;28;20096;-80
2023/01/28 15:36:59;;;;;;;1.85;1.80;;;;;;;;;;6296258;28;20111;-81
2023/01/28 15:40:00;;;;;;;8.47;5.77;;;;;;;;;;6292666;28;20073;-80
2023/01/28 15:43:00;;;;;;;1.60;1.53;;;;;;;;;;6274677;28;20024;-80
2023/01/28 15:46:00;;;;;;;1.70;1.63;;;;;;;;;;6297463;28;20024;-81
2023/01/28 15:49:01;;;;;;;1.87;1.77;;;;;;;;;;6293775;28;20352;-81
2023/01/28 15:52:02;;;;;;;4.45;4.03;;;;;;;;;;6286568;28;20029;-81
2023/01/28 15:55:03;;;;;;;2.00;1.90;;;;;;;;;;6267894;28;20021;-81
2023/01/28 15:58:16;;;;;;;4.55;4.30;;;;;;;;;;6284909;28;20397;-81
2023/01/28 16:01:17;;;;;;;5.65;5.13;;;;;;;;;;6261493;28;20021;-81
2023/01/28 16:04:22;;;;;;;2.63;2.45;;;;;;;;;;6288577;28;20495;-81
2023/01/28 16:07:23;;;;;;;3.20;2.92;;;;;;;;;;6279358;28;20488;-81
2023/01/28 16:10:27;;;;;;;6.45;4.68;;;;;;;;;;6294199;28;20539;-81
2023/01/28 16:13:30;;;;;;;3.78;3.50;;;;;;;;;;6273663;28;20024;-81
2023/01/28 16:16:34;;;;;;;3.88;3.55;;;;;;;;;;6297274;28;20078;-81
2023/01/28 16:19:38;;;;;;;4.40;4.20;;;;;;;;;;6277180;28;20183;-81
2023/01/28 16:22:40;;;;;;;6.68;6.10;;;;;;;;;;6299850;28;20031;-80
2023/01/28 16:25:41;;;;;;;4.85;4.45;;;;;;;;;;6298170;28;20017;-81
2023/01/28 16:28:41;;;;;;;10.07;3.83;;;;;;;;;;6285879;28;20023;-81
2023/01/28 16:31:41;;;;;;;4.75;4.35;;;;;;;;;;6289117;28;20044;-81
2023/01/28 16:34:43;;;;;;;3.63;3.30;;;;;;;;;;6267407;28;20009;-81
2023/01/28 16:37:43;;;;;;;;;;;;;;;;;;6272603;28;20469;-81
2023/01/28 16:40:44;;;;;;;0.90;0.90;;;;;;;;;;6281896;28;19944;-81
2023/01/28 16:43:44;;;;;;;5.23;4.87;;;;;;;;;;6286978;28;20388;-81
2023/01/28 16:46:44;;;;;;;2.97;2.78;;;;;;;;;;6267158;28;20036;-81
2023/01/28 16:49:45;;;;;;;4.10;2.93;;;;;;;;;;6281709;28;20025;-81
2023/01/28 16:52:46;;;;;;;2.77;2.20;;;;;;;;;;6262629;28;20020;-81
2023/01/28 16:55:50;;;;;;;12.02;3.17;;;;;;;;;;6275313;28;20032;-81
2023/01/28 16:58:50;;;;;;;5.57;5.28;;;;;;;;;;6278688;28;20102;-80
2023/01/28 17:01:51;;;;;;;8.30;5.90;;;;;;;;;;6263419;28;20551;-80
2023/01/28 17:04:51;;;;;;;7.30;6.40;;;;;;;;;;6286789;28;20024;-80
2023/01/28 17:07:53;;;;;;;2.67;2.58;;;;;;;;;;6265669;28;20103;-80
2023/01/28 17:10:54;;;;;;;7.18;6.53;;;;;;;;;;6287429;28;20078;-80
2023/01/28 17:13:54;;;;;;;22.20;3.87;;;;;;;;;;6281603;28;20029;-80
2023/01/28 17:16:54;;;;;;;3.03;2.87;;;;;;;;;;6270847;28;20025;-80
2023/01/28 17:19:54;;;;;;;0.70;0.70;;;;;;;;;;6280051;28;20027;-80
2023/01/28 17:22:55;;;;;;;0.90;0.90;;;;;;;;;;6263955;28;20537;-81
2023/01/28 17:25:55;;;;;;;3.28;3.08;;;;;;;;;;6265930;28;20025;-80
2023/01/28 17:28:55;;;;;;;2.53;2.43;;;;;;;;;;6278893;28;20060;-80
2023/01/28 17:31:55;;;;;;;0.73;0.70;;;;;;;;;;6283269;28;20533;-80
2023/01/28 17:34:55;;;;;;;8.75;3.30;;;;;;;;;;6308183;28;20153;-80
2023/01/28 17:37:56;;;;;;;18.00;7.43;;;;;;;;;;6308893;28;20036;-81
2023/01/28 17:41:07;;;;;;;1.35;1.33;;;;;;;;;;6310988;28;20416;-80
2023/01/28 17:44:09;;;;;;;1.27;1.27;;;;;;;;;;6302468;28;20020;-80
2023/01/28 17:47:09;;;;;;;3.55;3.35;;;;;;;;;;6314027;28;20026;-80
2023/01/28 17:50:10;;;;;;;12.43;7.50;;;;;;;;;;6299735;28;20064;-79
2023/01/28 17:53:11;;;;;;;6.50;6.00;;;;;;;;;;6315792;28;20380;-79
2023/01/28 17:56:15;;;;;;;19.57;6.83;;;;;;;;;;6311421;28;20016;-80
2023/01/28 17:59:16;;;;;;;2.70;2.58;;;;;;;;;;6303881;28;20020;-79
2023/01/28 18:02:16;;;;;;;4.30;3.90;;;;;;;;;;6312330;28;20031;-79
2023/01/28 18:05:16;;;;;;;3.57;3.37;;;;;;;;;;6311573;28;20055;-79
2023/01/28 18:08:17;;;;;;;2.27;2.23;;;;;;;;;;6306247;28;20357;-79
2023/01/28 18:11:18;;;;;;;0.90;0.90;;;;;;;;;;6314056;28;20020;-78
2023/01/28 18:14:18;;;;;;;0.60;0.60;;;;;;;;;;6314197;28;20012;-78
2023/01/28 18:17:18;;;;;;;5.80;5.38;;;;;;;;;;6308330;28;20269;-80
2023/01/28 18:20:18;;;;;;;15.37;3.70;;;;;;;;;;6311616;28;20090;-80
2023/01/28 18:23:18;;;;;;;3.03;1.83;;;;;;;;;;6316328;28;20039;-78
2023/01/28 18:26:19;;;;;;;4.60;2.93;;;;;;;;;;6316179;28;20016;-78
2023/01/28 18:29:19;;;;;;;1.73;1.70;;;;;;;;;;6313477;28;20016;-78
2023/01/28 18:32:19;;;;;;;3.93;3.47;;;;;;;;;;6308307;28;20052;-79
2023/01/28 18:35:20;;;;;;;1.70;1.63;;;;;;;;;;6316213;28;20027;-78
2023/01/28 18:38:20;;;;;;;5.00;3.67;;;;;;;;;;6322079;28;20063;-78
2023/01/28 18:41:20;;;;;;;8.77;5.97;;;;;;;;;;6330487;28;20027;-78
2023/01/28 18:44:21;;;;;;;1.90;1.80;;;;;;;;;;6323416;28;20073;-78
2023/01/28 18:47:22;;;;;;;2.67;2.33;;;;;;;;;;6322494;28;20026;-78